sensor_id;sensor_type;location;lat;lon;timestamp;P1;durP1;ratioP1;P2;durP2;ratioP2
28844;SDS011;15976;47.938;7.758;2022-07-24T00:01:38;10.55;;;8.40;;
28844;SDS011;15976;47.938;7.758;2022-07-24T00:04:06;9.20;;;7.90;;
28844;SDS011;15976;47.938;7.758;2022-07-24T00:06:33;9.80;;;8.35;;
28844;SDS011;15976;47.938;7.758;2022-07-24T00:09:00;10.07;;;8.85;;
28844;SDS011;15976;47.938;7.758;2022-07-24T00:11:28;11.50;;;8.80;;
28844;SDS011;15976;47.938;7.758;2022-07-24T00:13:55;13.75;;;8.85;;
28844;SDS011;15976;47.938;7.758;2022-07-24T00:16:22;9.75;;;8.40;;
28844;SDS011;15976;47.938;7.758;2022-07-24T00:18:49;10.93;;;8.18;;
28844;SDS011;15976;47.938;7.758;2022-07-24T00:21:16;9.20;;;7.55;;
28844;SDS011;15976;47.938;7.758;2022-07-24T00:23:44;10.40;;;7.90;;
28844;SDS011;15976;47.938;7.758;2022-07-24T00:26:11;12.18;;;8.52;;
28844;SDS011;15976;47.938;7.758;2022-07-24T00:28:38;10.48;;;8.35;;
28844;SDS011;15976;47.938;7.758;2022-07-24T00:31:05;8.55;;;7.53;;
28844;SDS011;15976;47.938;7.758;2022-07-24T00:33:33;8.95;;;7.80;;
28844;SDS011;15976;47.938;7.758;2022-07-24T00:36:00;9.10;;;8.10;;
28844;SDS011;15976;47.938;7.758;2022-07-24T00:38:27;10.30;;;8.73;;
28844;SDS011;15976;47.938;7.758;2022-07-24T00:40:54;11.55;;;9.27;;
28844;SDS011;15976;47.938;7.758;2022-07-24T00:43:21;11.45;;;9.93;;
28844;SDS011;15976;47.938;7.758;2022-07-24T00:45:48;10.15;;;8.70;;
28844;SDS011;15976;47.938;7.758;2022-07-24T00:48:16;10.18;;;8.90;;
28844;SDS011;15976;47.938;7.758;2022-07-24T00:50:45;9.30;;;8.27;;
28844;SDS011;15976;47.938;7.758;2022-07-24T00:53:14;10.70;;;8.40;;
28844;SDS011;15976;47.938;7.758;2022-07-24T00:55:42;10.05;;;7.65;;
28844;SDS011;15976;47.938;7.758;2022-07-24T00:58:09;10.93;;;8.38;;
28844;SDS011;15976;47.938;7.758;2022-07-24T01:00:39;10.57;;;8.27;;
28844;SDS011;15976;47.938;7.758;2022-07-24T01:03:06;11.77;;;7.95;;
28844;SDS011;15976;47.938;7.758;2022-07-24T01:05:33;9.38;;;7.90;;
28844;SDS011;15976;47.938;7.758;2022-07-24T01:08:00;12.98;;;8.65;;
28844;SDS011;15976;47.938;7.758;2022-07-24T01:10:28;10.63;;;7.60;;
28844;SDS011;15976;47.938;7.758;2022-07-24T01:12:55;9.77;;;8.55;;
28844;SDS011;15976;47.938;7.758;2022-07-24T01:15:23;11.00;;;8.52;;
28844;SDS011;15976;47.938;7.758;2022-07-24T01:17:50;9.48;;;8.32;;
28844;SDS011;15976;47.938;7.758;2022-07-24T01:20:17;10.73;;;8.10;;
28844;SDS011;15976;47.938;7.758;2022-07-24T01:22:44;9.23;;;8.20;;
28844;SDS011;15976;47.938;7.758;2022-07-24T01:25:11;10.70;;;8.27;;
28844;SDS011;15976;47.938;7.758;2022-07-24T01:27:39;12.07;;;7.95;;
28844;SDS011;15976;47.938;7.758;2022-07-24T01:30:06;9.43;;;7.88;;
28844;SDS011;15976;47.938;7.758;2022-07-24T01:32:33;9.30;;;8.18;;
28844;SDS011;15976;47.938;7.758;2022-07-24T01:35:01;12.48;;;8.30;;
28844;SDS011;15976;47.938;7.758;2022-07-24T01:37:28;9.27;;;8.10;;
28844;SDS011;15976;47.938;7.758;2022-07-24T01:39:55;11.25;;;8.75;;
28844;SDS011;15976;47.938;7.758;2022-07-24T01:42:22;10.40;;;9.27;;
28844;SDS011;15976;47.938;7.758;2022-07-24T01:44:51;12.00;;;9.63;;
28844;SDS011;15976;47.938;7.758;2022-07-24T01:47:18;10.43;;;9.32;;
28844;SDS011;15976;47.938;7.758;2022-07-24T01:49:46;11.57;;;8.73;;
28844;SDS011;15976;47.938;7.758;2022-07-24T01:52:13;11.02;;;8.52;;
28844;SDS011;15976;47.938;7.758;2022-07-24T01:54:40;10.32;;;9.10;;
28844;SDS011;15976;47.938;7.758;2022-07-24T01:57:07;10.40;;;8.48;;
28844;SDS011;15976;47.938;7.758;2022-07-24T01:59:35;11.80;;;9.18;;
28844;SDS011;15976;47.938;7.758;2022-07-24T02:02:02;12.40;;;9.38;;
28844;SDS011;15976;47.938;7.758;2022-07-24T02:04:29;12.57;;;8.93;;
28844;SDS011;15976;47.938;7.758;2022-07-24T02:06:56;9.55;;;8.55;;
28844;SDS011;15976;47.938;7.758;2022-07-24T02:09:24;12.35;;;9.05;;
28844;SDS011;15976;47.938;7.758;2022-07-24T02:11:51;11.38;;;9.00;;
28844;SDS011;15976;47.938;7.758;2022-07-24T02:14:19;13.85;;;8.90;;
28844;SDS011;15976;47.938;7.758;2022-07-24T02:16:46;11.88;;;8.50;;
28844;SDS011;15976;47.938;7.758;2022-07-24T02:19:13;10.30;;;8.65;;
28844;SDS011;15976;47.938;7.758;2022-07-24T02:21:42;9.32;;;8.15;;
28844;SDS011;15976;47.938;7.758;2022-07-24T02:24:09;11.02;;;8.63;;
28844;SDS011;15976;47.938;7.758;2022-07-24T02:26:36;11.30;;;7.85;;
28844;SDS011;15976;47.938;7.758;2022-07-24T02:29:04;12.13;;;8.80;;
28844;SDS011;15976;47.938;7.758;2022-07-24T02:31:32;9.70;;;8.70;;
28844;SDS011;15976;47.938;7.758;2022-07-24T02:33:59;9.82;;;8.45;;
28844;SDS011;15976;47.938;7.758;2022-07-24T02:36:26;11.05;;;8.38;;
28844;SDS011;15976;47.938;7.758;2022-07-24T02:38:53;9.52;;;8.52;;
28844;SDS011;15976;47.938;7.758;2022-07-24T02:41:20;10.18;;;8.50;;
28844;SDS011;15976;47.938;7.758;2022-07-24T02:43:48;10.20;;;9.05;;
28844;SDS011;15976;47.938;7.758;2022-07-24T02:46:15;10.93;;;9.52;;
28844;SDS011;15976;47.938;7.758;2022-07-24T02:48:42;11.45;;;9.45;;
28844;SDS011;15976;47.938;7.758;2022-07-24T02:51:09;11.32;;;9.57;;
28844;SDS011;15976;47.938;7.758;2022-07-24T02:53:36;10.07;;;8.85;;
28844;SDS011;15976;47.938;7.758;2022-07-24T02:56:04;12.13;;;9.40;;
28844;SDS011;15976;47.938;7.758;2022-07-24T02:58:31;12.90;;;9.93;;
28844;SDS011;15976;47.938;7.758;2022-07-24T03:00:59;11.27;;;9.52;;
28844;SDS011;15976;47.938;7.758;2022-07-24T03:03:27;11.20;;;9.00;;
28844;SDS011;15976;47.938;7.758;2022-07-24T03:05:54;11.95;;;9.25;;
28844;SDS011;15976;47.938;7.758;2022-07-24T03:08:21;13.15;;;9.50;;
28844;SDS011;15976;47.938;7.758;2022-07-24T03:10:48;12.18;;;9.20;;
28844;SDS011;15976;47.938;7.758;2022-07-24T03:13:16;12.38;;;9.32;;
28844;SDS011;15976;47.938;7.758;2022-07-24T03:15:43;12.48;;;9.27;;
28844;SDS011;15976;47.938;7.758;2022-07-24T03:18:12;11.63;;;9.43;;
28844;SDS011;15976;47.938;7.758;2022-07-24T03:20:48;9.48;;;8.43;;
28844;SDS011;15976;47.938;7.758;2022-07-24T03:23:15;9.98;;;8.80;;
28844;SDS011;15976;47.938;7.758;2022-07-24T03:25:42;12.55;;;8.93;;
28844;SDS011;15976;47.938;7.758;2022-07-24T03:28:10;10.93;;;8.88;;
28844;SDS011;15976;47.938;7.758;2022-07-24T03:30:37;11.45;;;9.38;;
28844;SDS011;15976;47.938;7.758;2022-07-24T03:33:04;12.38;;;9.45;;
28844;SDS011;15976;47.938;7.758;2022-07-24T03:35:31;11.32;;;9.73;;
28844;SDS011;15976;47.938;7.758;2022-07-24T03:37:58;12.27;;;9.40;;
28844;SDS011;15976;47.938;7.758;2022-07-24T03:40:26;11.77;;;9.18;;
28844;SDS011;15976;47.938;7.758;2022-07-24T03:42:53;11.07;;;9.23;;
28844;SDS011;15976;47.938;7.758;2022-07-24T03:45:20;12.90;;;9.00;;
28844;SDS011;15976;47.938;7.758;2022-07-24T03:47:47;12.05;;;8.70;;
28844;SDS011;15976;47.938;7.758;2022-07-24T03:50:14;10.70;;;8.48;;
28844;SDS011;15976;47.938;7.758;2022-07-24T03:52:47;12.75;;;8.68;;
28844;SDS011;15976;47.938;7.758;2022-07-24T03:55:16;12.20;;;8.45;;
28844;SDS011;15976;47.938;7.758;2022-07-24T03:57:43;11.02;;;8.63;;
28844;SDS011;15976;47.938;7.758;2022-07-24T04:00:11;10.88;;;9.15;;
28844;SDS011;15976;47.938;7.758;2022-07-24T04:02:38;10.98;;;8.20;;
28844;SDS011;15976;47.938;7.758;2022-07-24T04:05:06;11.38;;;9.32;;
28844;SDS011;15976;47.938;7.758;2022-07-24T04:07:36;11.65;;;8.70;;
28844;SDS011;15976;47.938;7.758;2022-07-24T04:10:04;9.63;;;8.65;;
28844;SDS011;15976;47.938;7.758;2022-07-24T04:12:33;10.43;;;8.65;;
28844;SDS011;15976;47.938;7.758;2022-07-24T04:15:00;9.15;;;8.10;;
28844;SDS011;15976;47.938;7.758;2022-07-24T04:17:27;10.82;;;9.23;;
28844;SDS011;15976;47.938;7.758;2022-07-24T04:19:55;10.23;;;8.38;;
28844;SDS011;15976;47.938;7.758;2022-07-24T04:22:22;11.32;;;9.35;;
28844;SDS011;15976;47.938;7.758;2022-07-24T04:24:50;10.00;;;7.90;;
28844;SDS011;15976;47.938;7.758;2022-07-24T04:27:17;10.35;;;8.38;;
28844;SDS011;15976;47.938;7.758;2022-07-24T04:29:44;12.48;;;8.95;;
28844;SDS011;15976;47.938;7.758;2022-07-24T04:32:11;11.63;;;8.65;;
28844;SDS011;15976;47.938;7.758;2022-07-24T04:34:38;11.13;;;8.85;;
28844;SDS011;15976;47.938;7.758;2022-07-24T04:37:05;11.80;;;8.73;;
28844;SDS011;15976;47.938;7.758;2022-07-24T04:39:32;10.05;;;8.55;;
28844;SDS011;15976;47.938;7.758;2022-07-24T04:42:00;10.95;;;8.55;;
28844;SDS011;15976;47.938;7.758;2022-07-24T04:44:27;11.90;;;9.07;;
28844;SDS011;15976;47.938;7.758;2022-07-24T04:46:54;11.32;;;8.65;;
28844;SDS011;15976;47.938;7.758;2022-07-24T04:49:22;9.75;;;8.75;;
28844;SDS011;15976;47.938;7.758;2022-07-24T04:51:49;11.23;;;8.95;;
28844;SDS011;15976;47.938;7.758;2022-07-24T04:54:16;12.65;;;10.10;;
28844;SDS011;15976;47.938;7.758;2022-07-24T04:56:44;12.35;;;9.30;;
28844;SDS011;15976;47.938;7.758;2022-07-24T04:59:11;12.13;;;9.32;;
28844;SDS011;15976;47.938;7.758;2022-07-24T05:01:38;11.48;;;8.98;;
28844;SDS011;15976;47.938;7.758;2022-07-24T05:04:05;9.68;;;8.68;;
28844;SDS011;15976;47.938;7.758;2022-07-24T05:06:32;10.38;;;8.93;;
28844;SDS011;15976;47.938;7.758;2022-07-24T05:08:59;11.32;;;9.23;;
28844;SDS011;15976;47.938;7.758;2022-07-24T05:11:27;10.00;;;8.93;;
28844;SDS011;15976;47.938;7.758;2022-07-24T05:13:55;14.85;;;10.75;;
28844;SDS011;15976;47.938;7.758;2022-07-24T05:16:22;11.98;;;10.23;;
28844;SDS011;15976;47.938;7.758;2022-07-24T05:18:49;12.05;;;10.13;;
28844;SDS011;15976;47.938;7.758;2022-07-24T05:21:17;11.85;;;9.68;;
28844;SDS011;15976;47.938;7.758;2022-07-24T05:23:44;12.43;;;10.20;;
28844;SDS011;15976;47.938;7.758;2022-07-24T05:26:12;11.55;;;9.70;;
28844;SDS011;15976;47.938;7.758;2022-07-24T05:28:38;11.75;;;9.73;;
28844;SDS011;15976;47.938;7.758;2022-07-24T05:31:06;11.18;;;9.70;;
28844;SDS011;15976;47.938;7.758;2022-07-24T05:33:35;14.48;;;10.10;;
28844;SDS011;15976;47.938;7.758;2022-07-24T05:36:02;11.00;;;9.35;;
28844;SDS011;15976;47.938;7.758;2022-07-24T05:38:30;11.63;;;9.55;;
28844;SDS011;15976;47.938;7.758;2022-07-24T05:40:58;10.73;;;9.63;;
28844;SDS011;15976;47.938;7.758;2022-07-24T05:43:25;14.27;;;9.98;;
28844;SDS011;15976;47.938;7.758;2022-07-24T05:45:52;12.65;;;9.77;;
28844;SDS011;15976;47.938;7.758;2022-07-24T05:48:21;11.15;;;9.48;;
28844;SDS011;15976;47.938;7.758;2022-07-24T05:50:48;12.05;;;9.15;;
28844;SDS011;15976;47.938;7.758;2022-07-24T05:53:16;11.32;;;9.63;;
28844;SDS011;15976;47.938;7.758;2022-07-24T05:55:43;10.88;;;9.38;;
28844;SDS011;15976;47.938;7.758;2022-07-24T05:58:10;11.80;;;9.88;;
28844;SDS011;15976;47.938;7.758;2022-07-24T06:00:37;12.35;;;10.50;;
28844;SDS011;15976;47.938;7.758;2022-07-24T06:03:06;12.05;;;10.05;;
28844;SDS011;15976;47.938;7.758;2022-07-24T06:05:38;12.70;;;10.10;;
28844;SDS011;15976;47.938;7.758;2022-07-24T06:08:05;10.93;;;9.80;;
28844;SDS011;15976;47.938;7.758;2022-07-24T06:10:33;12.48;;;9.43;;
28844;SDS011;15976;47.938;7.758;2022-07-24T06:13:02;10.60;;;9.25;;
28844;SDS011;15976;47.938;7.758;2022-07-24T06:15:30;11.00;;;9.90;;
28844;SDS011;15976;47.938;7.758;2022-07-24T06:17:59;12.57;;;10.02;;
28844;SDS011;15976;47.938;7.758;2022-07-24T06:20:26;12.27;;;9.55;;
28844;SDS011;15976;47.938;7.758;2022-07-24T06:22:53;11.18;;;9.48;;
28844;SDS011;15976;47.938;7.758;2022-07-24T06:25:20;13.32;;;9.93;;
28844;SDS011;15976;47.938;7.758;2022-07-24T06:27:49;12.35;;;10.05;;
28844;SDS011;15976;47.938;7.758;2022-07-24T06:30:21;10.93;;;9.82;;
28844;SDS011;15976;47.938;7.758;2022-07-24T06:32:54;10.70;;;9.23;;
28844;SDS011;15976;47.938;7.758;2022-07-24T06:35:23;11.15;;;9.32;;
28844;SDS011;15976;47.938;7.758;2022-07-24T06:37:51;12.75;;;9.70;;
28844;SDS011;15976;47.938;7.758;2022-07-24T06:40:18;13.27;;;10.02;;
28844;SDS011;15976;47.938;7.758;2022-07-24T06:42:46;11.18;;;9.75;;
28844;SDS011;15976;47.938;7.758;2022-07-24T06:45:15;10.93;;;8.90;;
28844;SDS011;15976;47.938;7.758;2022-07-24T06:47:42;13.05;;;9.80;;
28844;SDS011;15976;47.938;7.758;2022-07-24T06:50:10;10.90;;;8.95;;
28844;SDS011;15976;47.938;7.758;2022-07-24T06:52:38;10.60;;;9.38;;
28844;SDS011;15976;47.938;7.758;2022-07-24T06:55:07;10.48;;;9.23;;
28844;SDS011;15976;47.938;7.758;2022-07-24T06:57:35;13.48;;;9.40;;
28844;SDS011;15976;47.938;7.758;2022-07-24T07:00:08;14.27;;;9.77;;
28844;SDS011;15976;47.938;7.758;2022-07-24T07:02:37;12.23;;;9.13;;
28844;SDS011;15976;47.938;7.758;2022-07-24T07:05:05;10.52;;;9.18;;
28844;SDS011;15976;47.938;7.758;2022-07-24T07:07:34;11.77;;;8.27;;
28844;SDS011;15976;47.938;7.758;2022-07-24T07:10:02;11.05;;;9.18;;
28844;SDS011;15976;47.938;7.758;2022-07-24T07:12:30;12.02;;;9.25;;
28844;SDS011;15976;47.938;7.758;2022-07-24T07:15:03;11.25;;;8.80;;
28844;SDS011;15976;47.938;7.758;2022-07-24T07:17:31;10.75;;;9.10;;
28844;SDS011;15976;47.938;7.758;2022-07-24T07:19:58;10.48;;;8.65;;
28844;SDS011;15976;47.938;7.758;2022-07-24T07:22:26;10.75;;;8.68;;
28844;SDS011;15976;47.938;7.758;2022-07-24T07:24:53;11.00;;;8.75;;
28844;SDS011;15976;47.938;7.758;2022-07-24T07:27:21;10.63;;;8.85;;
28844;SDS011;15976;47.938;7.758;2022-07-24T07:29:48;10.38;;;8.93;;
28844;SDS011;15976;47.938;7.758;2022-07-24T07:32:15;9.73;;;8.38;;
28844;SDS011;15976;47.938;7.758;2022-07-24T07:34:42;11.18;;;8.68;;
28844;SDS011;15976;47.938;7.758;2022-07-24T07:37:09;10.02;;;8.95;;
28844;SDS011;15976;47.938;7.758;2022-07-24T07:39:36;11.55;;;8.95;;
28844;SDS011;15976;47.938;7.758;2022-07-24T07:42:03;10.40;;;8.48;;
28844;SDS011;15976;47.938;7.758;2022-07-24T07:44:31;13.02;;;8.98;;
28844;SDS011;15976;47.938;7.758;2022-07-24T07:46:58;10.30;;;8.48;;
28844;SDS011;15976;47.938;7.758;2022-07-24T07:49:26;10.73;;;8.00;;
28844;SDS011;15976;47.938;7.758;2022-07-24T07:51:54;12.70;;;8.02;;
28844;SDS011;15976;47.938;7.758;2022-07-24T07:54:21;11.25;;;7.65;;
28844;SDS011;15976;47.938;7.758;2022-07-24T07:56:48;8.98;;;8.07;;
28844;SDS011;15976;47.938;7.758;2022-07-24T07:59:15;9.20;;;7.75;;
28844;SDS011;15976;47.938;7.758;2022-07-24T08:01:42;12.20;;;8.23;;
28844;SDS011;15976;47.938;7.758;2022-07-24T08:04:09;10.45;;;8.13;;
28844;SDS011;15976;47.938;7.758;2022-07-24T08:06:38;10.20;;;7.90;;
28844;SDS011;15976;47.938;7.758;2022-07-24T08:09:06;9.82;;;7.65;;
28844;SDS011;15976;47.938;7.758;2022-07-24T08:11:35;9.02;;;8.13;;
28844;SDS011;15976;47.938;7.758;2022-07-24T08:14:02;10.32;;;8.25;;
28844;SDS011;15976;47.938;7.758;2022-07-24T08:16:29;9.95;;;7.55;;
28844;SDS011;15976;47.938;7.758;2022-07-24T08:18:56;9.48;;;7.85;;
28844;SDS011;15976;47.938;7.758;2022-07-24T08:21:23;12.52;;;8.23;;
28844;SDS011;15976;47.938;7.758;2022-07-24T08:23:50;8.68;;;7.78;;
28844;SDS011;15976;47.938;7.758;2022-07-24T08:26:17;10.95;;;7.10;;
28844;SDS011;15976;47.938;7.758;2022-07-24T08:28:44;9.77;;;7.10;;
28844;SDS011;15976;47.938;7.758;2022-07-24T08:31:11;7.57;;;6.72;;
28844;SDS011;15976;47.938;7.758;2022-07-24T08:33:39;5.97;;;4.25;;
28844;SDS011;15976;47.938;7.758;2022-07-24T08:36:07;8.82;;;6.97;;
28844;SDS011;15976;47.938;7.758;2022-07-24T08:38:34;4.70;;;4.07;;
28844;SDS011;15976;47.938;7.758;2022-07-24T08:41:02;7.93;;;4.13;;
28844;SDS011;15976;47.938;7.758;2022-07-24T08:43:30;5.53;;;3.75;;
28844;SDS011;15976;47.938;7.758;2022-07-24T08:46:01;6.37;;;3.53;;
28844;SDS011;15976;47.938;7.758;2022-07-24T08:48:31;5.30;;;3.70;;
28844;SDS011;15976;47.938;7.758;2022-07-24T08:50:59;5.00;;;3.30;;
28844;SDS011;15976;47.938;7.758;2022-07-24T08:53:28;5.60;;;3.67;;
28844;SDS011;15976;47.938;7.758;2022-07-24T08:55:58;7.82;;;3.85;;
28844;SDS011;15976;47.938;7.758;2022-07-24T08:58:25;5.07;;;3.40;;
28844;SDS011;15976;47.938;7.758;2022-07-24T09:00:52;4.97;;;3.53;;
28844;SDS011;15976;47.938;7.758;2022-07-24T09:03:19;6.32;;;3.65;;
28844;SDS011;15976;47.938;7.758;2022-07-24T09:05:53;5.38;;;3.55;;
28844;SDS011;15976;47.938;7.758;2022-07-24T09:08:20;3.53;;;2.90;;
28844;SDS011;15976;47.938;7.758;2022-07-24T09:10:57;4.00;;;3.35;;
28844;SDS011;15976;47.938;7.758;2022-07-24T09:13:30;4.32;;;3.42;;
28844;SDS011;15976;47.938;7.758;2022-07-24T09:18:50;3.53;;;2.65;;
28844;SDS011;15976;47.938;7.758;2022-07-24T09:21:37;5.88;;;2.65;;
28844;SDS011;15976;47.938;7.758;2022-07-24T09:24:19;4.03;;;3.25;;
28844;SDS011;15976;47.938;7.758;2022-07-24T09:29:24;4.05;;;2.65;;
28844;SDS011;15976;47.938;7.758;2022-07-24T09:31:54;2.75;;;2.45;;
28844;SDS011;15976;47.938;7.758;2022-07-24T09:34:23;5.63;;;2.72;;
28844;SDS011;15976;47.938;7.758;2022-07-24T09:39:25;4.78;;;2.83;;
28844;SDS011;15976;47.938;7.758;2022-07-24T09:41:54;3.15;;;2.60;;
28844;SDS011;15976;47.938;7.758;2022-07-24T09:44:23;3.63;;;2.95;;
28844;SDS011;15976;47.938;7.758;2022-07-24T09:47:04;5.03;;;2.80;;
28844;SDS011;15976;47.938;7.758;2022-07-24T09:49:34;3.42;;;2.55;;
28844;SDS011;15976;47.938;7.758;2022-07-24T09:52:06;6.72;;;3.03;;
28844;SDS011;15976;47.938;7.758;2022-07-24T09:54:47;3.05;;;2.50;;
28844;SDS011;15976;47.938;7.758;2022-07-24T09:59:52;2.92;;;2.63;;
28844;SDS011;15976;47.938;7.758;2022-07-24T10:02:32;3.70;;;2.33;;
28844;SDS011;15976;47.938;7.758;2022-07-24T10:05:01;4.47;;;2.95;;
28844;SDS011;15976;47.938;7.758;2022-07-24T10:07:30;3.33;;;2.55;;
28844;SDS011;15976;47.938;7.758;2022-07-24T10:09:58;3.20;;;2.22;;
28844;SDS011;15976;47.938;7.758;2022-07-24T10:12:30;4.80;;;2.90;;
28844;SDS011;15976;47.938;7.758;2022-07-24T10:14:58;4.30;;;2.70;;
28844;SDS011;15976;47.938;7.758;2022-07-24T10:17:53;3.47;;;2.58;;
28844;SDS011;15976;47.938;7.758;2022-07-24T10:20:30;3.60;;;2.72;;
28844;SDS011;15976;47.938;7.758;2022-07-24T10:23:20;2.88;;;2.53;;
28844;SDS011;15976;47.938;7.758;2022-07-24T10:25:54;2.90;;;2.53;;
28844;SDS011;15976;47.938;7.758;2022-07-24T10:31:09;3.88;;;2.45;;
28844;SDS011;15976;47.938;7.758;2022-07-24T10:33:38;3.10;;;2.17;;
28844;SDS011;15976;47.938;7.758;2022-07-24T10:36:14;4.13;;;2.38;;
28844;SDS011;15976;47.938;7.758;2022-07-24T10:38:52;2.30;;;2.10;;
28844;SDS011;15976;47.938;7.758;2022-07-24T10:41:25;2.88;;;2.30;;
28844;SDS011;15976;47.938;7.758;2022-07-24T10:49:35;2.63;;;2.40;;
28844;SDS011;15976;47.938;7.758;2022-07-24T10:52:02;4.80;;;2.17;;
28844;SDS011;15976;47.938;7.758;2022-07-24T10:54:29;2.42;;;2.22;;
28844;SDS011;15976;47.938;7.758;2022-07-24T10:56:56;4.45;;;2.60;;
28844;SDS011;15976;47.938;7.758;2022-07-24T10:59:31;2.47;;;2.28;;
28844;SDS011;15976;47.938;7.758;2022-07-24T11:05:22;2.67;;;2.43;;
28844;SDS011;15976;47.938;7.758;2022-07-24T11:10:43;3.47;;;2.17;;
28844;SDS011;15976;47.938;7.758;2022-07-24T11:22:00;2.47;;;2.20;;
28844;SDS011;15976;47.938;7.758;2022-07-24T11:26:54;2.33;;;2.13;;
28844;SDS011;15976;47.938;7.758;2022-07-24T11:29:27;2.47;;;2.08;;
28844;SDS011;15976;47.938;7.758;2022-07-24T11:31:57;2.33;;;1.95;;
28844;SDS011;15976;47.938;7.758;2022-07-24T11:34:27;3.10;;;2.80;;
28844;SDS011;15976;47.938;7.758;2022-07-24T11:36:55;2.20;;;2.00;;
28844;SDS011;15976;47.938;7.758;2022-07-24T11:39:27;2.40;;;2.00;;
28844;SDS011;15976;47.938;7.758;2022-07-24T11:41:56;3.38;;;2.42;;
28844;SDS011;15976;47.938;7.758;2022-07-24T11:44:26;2.80;;;2.60;;
28844;SDS011;15976;47.938;7.758;2022-07-24T11:47:08;2.83;;;2.17;;
28844;SDS011;15976;47.938;7.758;2022-07-24T11:49:48;2.55;;;2.30;;
28844;SDS011;15976;47.938;7.758;2022-07-24T11:52:18;2.40;;;2.20;;
28844;SDS011;15976;47.938;7.758;2022-07-24T11:54:49;2.40;;;2.20;;
28844;SDS011;15976;47.938;7.758;2022-07-24T11:57:22;2.97;;;2.00;;
28844;SDS011;15976;47.938;7.758;2022-07-24T12:00:15;2.10;;;1.90;;
28844;SDS011;15976;47.938;7.758;2022-07-24T12:05:24;2.58;;;2.13;;
28844;SDS011;15976;47.938;7.758;2022-07-24T12:07:54;2.03;;;1.90;;
28844;SDS011;15976;47.938;7.758;2022-07-24T12:10:23;2.40;;;1.90;;
28844;SDS011;15976;47.938;7.758;2022-07-24T12:12:51;3.63;;;2.05;;
28844;SDS011;15976;47.938;7.758;2022-07-24T12:15:21;1.88;;;1.77;;
28844;SDS011;15976;47.938;7.758;2022-07-24T12:20:27;3.42;;;2.30;;
28844;SDS011;15976;47.938;7.758;2022-07-24T12:22:56;2.85;;;2.40;;
28844;SDS011;15976;47.938;7.758;2022-07-24T12:25:25;2.30;;;1.92;;
28844;SDS011;15976;47.938;7.758;2022-07-24T12:30:36;3.13;;;2.55;;
28844;SDS011;15976;47.938;7.758;2022-07-24T12:33:09;2.47;;;2.28;;
28844;SDS011;15976;47.938;7.758;2022-07-24T12:35:56;2.30;;;2.10;;
28844;SDS011;15976;47.938;7.758;2022-07-24T12:41:06;2.17;;;1.92;;
28844;SDS011;15976;47.938;7.758;2022-07-24T12:43:46;2.38;;;1.80;;
28844;SDS011;15976;47.938;7.758;2022-07-24T12:46:17;2.17;;;1.98;;
28844;SDS011;15976;47.938;7.758;2022-07-24T12:49:02;2.42;;;2.15;;
28844;SDS011;15976;47.938;7.758;2022-07-24T12:54:34;2.88;;;2.20;;
28844;SDS011;15976;47.938;7.758;2022-07-24T12:57:10;2.50;;;2.30;;
28844;SDS011;15976;47.938;7.758;2022-07-24T12:59:46;1.90;;;1.80;;
28844;SDS011;15976;47.938;7.758;2022-07-24T13:02:18;3.17;;;2.30;;
28844;SDS011;15976;47.938;7.758;2022-07-24T13:04:48;3.08;;;2.30;;
28844;SDS011;15976;47.938;7.758;2022-07-24T13:07:17;2.65;;;2.45;;
28844;SDS011;15976;47.938;7.758;2022-07-24T13:09:45;2.50;;;1.80;;
28844;SDS011;15976;47.938;7.758;2022-07-24T13:12:13;3.30;;;2.30;;
28844;SDS011;15976;47.938;7.758;2022-07-24T13:14:41;2.83;;;2.10;;
28844;SDS011;15976;47.938;7.758;2022-07-24T13:17:13;2.50;;;2.30;;
28844;SDS011;15976;47.938;7.758;2022-07-24T13:19:50;2.38;;;2.17;;
28844;SDS011;15976;47.938;7.758;2022-07-24T13:22:18;3.65;;;2.08;;
28844;SDS011;15976;47.938;7.758;2022-07-24T13:24:46;2.00;;;1.80;;
28844;SDS011;15976;47.938;7.758;2022-07-24T13:27:13;2.40;;;2.20;;
28844;SDS011;15976;47.938;7.758;2022-07-24T13:29:41;2.58;;;1.90;;
28844;SDS011;15976;47.938;7.758;2022-07-24T13:32:09;2.88;;;2.33;;
28844;SDS011;15976;47.938;7.758;2022-07-24T13:34:37;3.03;;;2.00;;
28844;SDS011;15976;47.938;7.758;2022-07-24T13:37:04;2.42;;;2.20;;
28844;SDS011;15976;47.938;7.758;2022-07-24T13:39:35;4.68;;;2.10;;
28844;SDS011;15976;47.938;7.758;2022-07-24T13:42:06;3.28;;;2.15;;
28844;SDS011;15976;47.938;7.758;2022-07-24T13:44:34;2.50;;;2.15;;
28844;SDS011;15976;47.938;7.758;2022-07-24T13:47:01;4.97;;;2.50;;
28844;SDS011;15976;47.938;7.758;2022-07-24T13:49:29;2.08;;;1.80;;
28844;SDS011;15976;47.938;7.758;2022-07-24T13:51:56;2.83;;;2.33;;
28844;SDS011;15976;47.938;7.758;2022-07-24T13:54:23;5.38;;;2.28;;
28844;SDS011;15976;47.938;7.758;2022-07-24T13:56:50;2.33;;;1.70;;
28844;SDS011;15976;47.938;7.758;2022-07-24T13:59:18;2.05;;;1.85;;
28844;SDS011;15976;47.938;7.758;2022-07-24T14:01:45;2.38;;;1.98;;
28844;SDS011;15976;47.938;7.758;2022-07-24T14:04:12;2.15;;;1.92;;
28844;SDS011;15976;47.938;7.758;2022-07-24T14:06:52;2.28;;;1.88;;
28844;SDS011;15976;47.938;7.758;2022-07-24T14:09:19;2.10;;;1.73;;
28844;SDS011;15976;47.938;7.758;2022-07-24T14:11:47;2.85;;;1.92;;
28844;SDS011;15976;47.938;7.758;2022-07-24T14:14:15;2.13;;;1.75;;
28844;SDS011;15976;47.938;7.758;2022-07-24T14:16:43;1.90;;;1.70;;
28844;SDS011;15976;47.938;7.758;2022-07-24T14:19:10;2.63;;;2.25;;
28844;SDS011;15976;47.938;7.758;2022-07-24T14:21:37;2.40;;;2.20;;
28844;SDS011;15976;47.938;7.758;2022-07-24T14:24:05;2.10;;;1.85;;
28844;SDS011;15976;47.938;7.758;2022-07-24T14:26:41;2.30;;;1.98;;
28844;SDS011;15976;47.938;7.758;2022-07-24T14:29:09;2.20;;;2.00;;
28844;SDS011;15976;47.938;7.758;2022-07-24T14:31:36;2.65;;;2.45;;
28844;SDS011;15976;47.938;7.758;2022-07-24T14:34:04;2.75;;;1.77;;
28844;SDS011;15976;47.938;7.758;2022-07-24T14:36:32;2.30;;;2.10;;
28844;SDS011;15976;47.938;7.758;2022-07-24T14:38:59;2.15;;;1.77;;
28844;SDS011;15976;47.938;7.758;2022-07-24T14:41:26;2.17;;;1.98;;
28844;SDS011;15976;47.938;7.758;2022-07-24T14:43:53;4.38;;;2.30;;
28844;SDS011;15976;47.938;7.758;2022-07-24T14:46:20;2.60;;;2.10;;
28844;SDS011;15976;47.938;7.758;2022-07-24T14:48:47;2.40;;;2.20;;
28844;SDS011;15976;47.938;7.758;2022-07-24T14:51:15;2.20;;;2.00;;
28844;SDS011;15976;47.938;7.758;2022-07-24T14:53:42;2.35;;;2.08;;
28844;SDS011;15976;47.938;7.758;2022-07-24T14:56:09;3.08;;;2.17;;
28844;SDS011;15976;47.938;7.758;2022-07-24T14:58:36;2.28;;;2.08;;
28844;SDS011;15976;47.938;7.758;2022-07-24T15:01:03;2.00;;;1.90;;
28844;SDS011;15976;47.938;7.758;2022-07-24T15:03:30;2.45;;;2.10;;
28844;SDS011;15976;47.938;7.758;2022-07-24T15:05:57;3.03;;;2.28;;
28844;SDS011;15976;47.938;7.758;2022-07-24T15:08:24;3.95;;;2.13;;
28844;SDS011;15976;47.938;7.758;2022-07-24T15:10:51;3.65;;;2.30;;
28844;SDS011;15976;47.938;7.758;2022-07-24T15:13:18;2.10;;;1.90;;
28844;SDS011;15976;47.938;7.758;2022-07-24T15:15:45;1.98;;;1.85;;
28844;SDS011;15976;47.938;7.758;2022-07-24T15:18:12;2.33;;;1.83;;
28844;SDS011;15976;47.938;7.758;2022-07-24T15:20:39;1.95;;;1.63;;
28844;SDS011;15976;47.938;7.758;2022-07-24T15:23:07;2.33;;;2.05;;
28844;SDS011;15976;47.938;7.758;2022-07-24T15:25:38;2.30;;;2.10;;
28844;SDS011;15976;47.938;7.758;2022-07-24T15:28:05;2.15;;;1.70;;
28844;SDS011;15976;47.938;7.758;2022-07-24T15:30:32;2.17;;;1.92;;
28844;SDS011;15976;47.938;7.758;2022-07-24T15:33:03;3.15;;;2.00;;
28844;SDS011;15976;47.938;7.758;2022-07-24T15:35:32;2.92;;;2.20;;
28844;SDS011;15976;47.938;7.758;2022-07-24T15:37:58;2.03;;;1.92;;
28844;SDS011;15976;47.938;7.758;2022-07-24T15:40:25;2.72;;;2.17;;